Terminal Aerodrome Forecast
Issued by NWS

Home | Current Version | Previous Version | Text Only | Print | Product List | Glossary On
Versions: 1 2 3 4 5 6 7 8 9 10 11 12 13 14 15 16 17
000
FTUS44 KOUN 230522
TAFGAG
TAF
KGAG 230522Z 2306/2406 18012KT P6SM SCT008 OVC012
      TEMPO 2309/2313 5SM BR OVC008
     FM231500 20007KT P6SM BKN025
     FM231800 19010KT P6SM BKN040=

USA.gov is the U.S. government's official web portal to all federal, state and local government web resources and services.